Stena Europe — VSTA3 — position and weather

sailwx.info

Track history (hours):
 
Tides and Currents Weather Stations Pressure Air Temp Water Temp Dewpoint Dewpoint Depression Visibility Wind Speed Wind Dir Waves Ship Positions

Stena Europe

Operator: Stena Line

Last reported at 2017-Jul-22 07:27 UTC. Time now 2017-Jul-22 12:37 UTC.
Position N 52°14' W 006°13'.

Length 149 m; draft 6.1 m.

Type: Passenger vessel. MMSI: 235004539.

Date/timePositionNaut miles runAvg speedWind from/ knotsBaromVisibWave heightAir tempDewpointWater temp
2017-Jul-22 07:27N 52°14' W 006°13'4 9.9
2017-Jul-22 07:00N 52°15' W 006°20'0 0.0
2017-Jul-22 06:30N 52°15' W 006°20'0 0.0
2017-Jul-22 06:00N 52°15' W 006°20'0 0.0
2017-Jul-22 05:30N 52°15' W 006°20'0 0.0
2017-Jul-22 05:00N 52°15' W 006°20'0 0.0
2017-Jul-22 04:30N 52°15' W 006°20'0 0.0
2017-Jul-22 04:00N 52°15' W 006°20'0 0.0
2017-Jul-22 03:30N 52°15' W 006°20'0 0.2
2017-Jul-22 03:00N 52°15' W 006°20'511.0
2017-Jul-22 02:30N 52°14' W 006°12'713.8
2017-Jul-22 02:00N 52°16' W 006°01'6 0.7
2017-Jul-21 17:30N 52°13' W 006°09'713.8
2017-Jul-21 17:00N 52°15' W 006°20'0 0.0
2017-Jul-21 16:31N 52°15' W 006°20'0 0.0
2017-Jul-21 16:00N 52°15' W 006°20'0 0.0
2017-Jul-21 15:31N 52°15' W 006°20'5 9.7
2017-Jul-21 15:00N 52°14' W 006°13'917.7
2017-Jul-21 14:31N 52°12' W 005°59'2 0.4
2017-Jul-21 07:36N 52°12' W 006°03'217.8
2017-Jul-21 07:30N 52°13' W 006°05'917.8
2017-Jul-21 07:01N 52°16' W 006°19'1 1.7
2017-Jul-21 06:29N 52°15' W 006°20'0 0.0
2017-Jul-21 05:59N 52°15' W 006°20'0 0.0
2017-Jul-21 05:29N 52°15' W 006°20'0 0.0
2017-Jul-21 04:59N 52°15' W 006°20'0 0.0
2017-Jul-21 04:29N 52°15' W 006°20'0 0.0
2017-Jul-21 03:59N 52°15' W 006°20'0 0.0
2017-Jul-21 03:30N 52°15' W 006°20'0 0.6
2017-Jul-21 03:00N 52°16' W 006°20'510.3
2017-Jul-21 02:30N 52°14' W 006°12'713.6
2017-Jul-21 02:01N 52°13' W 006°02'713.4
2017-Jul-21 01:30N 52°12' W 005°51'12 1.8
2017-Jul-20 18:47N 52°14' W 006°11'517.6
2017-Jul-20 18:30N 52°15' W 006°18'1 2.2
2017-Jul-20 18:00N 52°15' W 006°20'0 0.0
2017-Jul-20 17:30N 52°15' W 006°20'0 0.0
2017-Jul-20 17:00N 52°15' W 006°20'4 8.8
2017-Jul-20 16:30N 52°15' W 006°13'815.7
2017-Jul-20 16:00N 52°15' W 006°00'7 0.8
2017-Jul-20 07:24N 52°14' W 006°12'513.3
2017-Jul-20 07:00N 52°15' W 006°20'0 0.0
2017-Jul-20 06:30N 52°15' W 006°20'0 0.0
2017-Jul-20 06:00N 52°15' W 006°20'0 0.0
2017-Jul-20 05:30N 52°15' W 006°20'0 0.0
2017-Jul-20 05:00N 52°15' W 006°20'0 0.0
2017-Jul-20 04:30N 52°15' W 006°20'0 0.0
2017-Jul-20 04:00N 52°15' W 006°20'0 0.0
2017-Jul-20 03:30N 52°15' W 006°20'0 0.0
2017-Jul-20 03:00N 52°15' W 006°20'5 9.8
2017-Jul-20 02:30N 52°14' W 006°12'612.7
2017-Jul-20 02:00N 52°12' W 006°03'612.9
2017-Jul-20 01:30N 52°10' W 005°53'7 0.9
2017-Jul-19 17:44N 52°12' W 006°03'418.8
2017-Jul-19 17:30N 52°14' W 006°10'612.8
2017-Jul-19 17:00N 52°15' W 006°20'0 0.0
2017-Jul-19 16:30N 52°15' W 006°20'19 2.3
2017-Jul-19 08:04N 52°10' W 005°50'118.4
2017-Jul-19 08:00N 52°11' W 005°52'918.1
2017-Jul-19 07:30N 52°13' W 006°07'917.8
2017-Jul-19 07:00N 52°16' W 006°20'0 0.6
2017-Jul-19 06:30N 52°15' W 006°20'0 0.0
2017-Jul-19 06:00N 52°15' W 006°20'0 0.0
2017-Jul-19 05:30N 52°15' W 006°20'0 0.0
2017-Jul-19 05:00N 52°15' W 006°20'0 0.0
2017-Jul-19 04:30N 52°15' W 006°20'0 0.0
2017-Jul-19 04:00N 52°15' W 006°20'0 0.0
2017-Jul-19 03:29N 52°15' W 006°20'0 0.0
2017-Jul-19 03:00N 52°15' W 006°20'611.7
2017-Jul-19 02:30N 52°14' W 006°11'612.7
2017-Jul-19 02:00N 52°12' W 006°01'612.2
2017-Jul-19 01:30N 52°11' W 005°51'612.5
2017-Jul-19 01:00N 52°09' W 005°41'13 1.8
2017-Jul-18 17:55N 52°12' W 006°01'718.2
2017-Jul-18 17:30N 52°14' W 006°13'5 9.0
2017-Jul-18 17:01N 52°15' W 006°20'0 0.0
2017-Jul-18 16:30N 52°15' W 006°20'0 0.0
2017-Jul-18 16:01N 52°15' W 006°20'0 0.3
2017-Jul-18 15:31N 52°15' W 006°20'714.1
2017-Jul-18 15:00N 52°13' W 006°09'26 4.3
2017-Jul-18 08:56N 52°07' W 005°28'1017.8
2017-Jul-18 08:23N 52°10' W 005°44'717.4
2017-Jul-18 08:00N 52°11' W 005°54'917.7
2017-Jul-18 07:30N 52°13' W 006°08'815.3
2017-Jul-18 07:00N 52°15' W 006°20'0 0.0
2017-Jul-18 06:30N 52°15' W 006°20'0 0.0
2017-Jul-18 06:00N 52°15' W 006°20'0 0.0
2017-Jul-18 05:30N 52°15' W 006°20'0 0.0
2017-Jul-18 05:00N 52°15' W 006°20'0 0.0
2017-Jul-18 04:30N 52°15' W 006°20'0 0.0
2017-Jul-18 04:00N 52°15' W 006°20'0 0.0
2017-Jul-18 03:30N 52°15' W 006°20'0 0.0
2017-Jul-18 03:00N 52°15' W 006°20'510.6
2017-Jul-18 02:30N 52°14' W 006°12'714.2
2017-Jul-18 02:00N 52°12' W 006°01'611.4
2017-Jul-18 01:31N 52°11' W 005°52'1211.6
2017-Jul-18 00:30N 52°08' W 005°33'713.8
2017-Jul-18 00:00N 52°06' W 005°22'7 1.3
2017-Jul-17 18:47N 52°08' W 005°33'718.7
2017-Jul-17 18:24N 52°10' W 005°45'718.5
2017-Jul-17 18:01N 52°11' W 005°56'918.5
2017-Jul-17 17:31N 52°13' W 006°11'612.2
2017-Jul-17 17:00N 52°15' W 006°20'0 0.0
2017-Jul-17 16:30N 52°15' W 006°20'0 0.0
2017-Jul-17 16:00N 52°15' W 006°20'0 0.0
2017-Jul-17 15:30N 52°15' W 006°20'510.8
2017-Jul-17 15:00N 52°14' W 006°12'918.9
2017-Jul-17 14:30N 52°12' W 005°57'918.7
2017-Jul-17 14:00N 52°09' W 005°42'918.2
2017-Jul-17 13:30N 52°07' W 005°28'917.8
2017-Jul-17 13:01N 52°05' W 005°14'917.2
2017-Jul-17 12:30N 52°02' W 005°00'2 0.7
2017-Jul-17 09:58N 52°01' W 004°58'1317.3
2017-Jul-17 09:13N 52°05' W 005°18'617.9
2017-Jul-17 08:54N 52°07' W 005°26'717.7
2017-Jul-17 08:30N 52°08' W 005°38'917.5
2017-Jul-17 08:00N 52°11' W 005°52'917.5
2017-Jul-17 07:30N 52°12' W 006°05'918.4
2017-Jul-17 07:00N 52°16' W 006°19'1 1.1
2017-Jul-17 06:30N 52°15' W 006°20'0 0.0
2017-Jul-17 06:00N 52°15' W 006°20'0 0.0
2017-Jul-17 05:30N 52°15' W 006°20'0 0.0
2017-Jul-17 05:00N 52°15' W 006°20'0 0.0
2017-Jul-17 04:30N 52°15' W 006°20'0 0.0
2017-Jul-17 04:00N 52°15' W 006°20'0 0.0
2017-Jul-17 03:30N 52°15' W 006°20'0 0.0
2017-Jul-17 03:00N 52°15' W 006°20'510.4
2017-Jul-17 02:30N 52°14' W 006°12'713.7
2017-Jul-17 02:01N 52°12' W 006°01'713.9
2017-Jul-17 01:31N 52°10' W 005°50'11 1.6
2017-Jul-16 18:43N 52°08' W 005°33'418.4
2017-Jul-16 18:30N 52°09' W 005°40'918.4
2017-Jul-16 18:00N 52°11' W 005°54'918.3
2017-Jul-16 17:31N 52°13' W 006°09'714.6
2017-Jul-16 17:00N 52°15' W 006°20'0 0.0
2017-Jul-16 16:30N 52°15' W 006°20'0 0.0
2017-Jul-16 16:00N 52°15' W 006°20'0 0.0
2017-Jul-16 15:30N 52°15' W 006°20'3 6.4
2017-Jul-16 15:00N 52°14' W 006°15'918.4
2017-Jul-16 14:30N 52°12' W 006°01'1118.6
2017-Jul-16 13:55N 52°09' W 005°44'1018.2
2017-Jul-16 13:24N 52°07' W 005°28'817.5
2017-Jul-16 12:56N 52°05' W 005°16'19 4.1
2017-Jul-16 08:09N 52°10' W 005°46'318.0
2017-Jul-16 08:00N 52°11' W 005°50'918.1
2017-Jul-16 07:30N 52°12' W 006°05'918.5
2017-Jul-16 07:00N 52°16' W 006°19'1 1.7
2017-Jul-16 06:30N 52°15' W 006°20'0 0.0
2017-Jul-16 06:00N 52°15' W 006°20'0 0.0
2017-Jul-16 05:30N 52°15' W 006°20'0 0.0
2017-Jul-16 05:00N 52°15' W 006°20'0 0.0
2017-Jul-16 04:30N 52°15' W 006°20'0 0.0
2017-Jul-16 04:00N 52°15' W 006°20'0 0.0
2017-Jul-16 03:30N 52°15' W 006°20'0 0.0
2017-Jul-16 03:00N 52°15' W 006°20'4 8.1
2017-Jul-16 02:30N 52°14' W 006°14'816.1
2017-Jul-16 02:00N 52°12' W 006°01'815.7
2017-Jul-16 01:29N 52°10' W 005°48'3 0.4
2017-Jul-15 18:27N 52°09' W 005°44'818.1
2017-Jul-15 18:00N 52°11' W 005°57'918.1
2017-Jul-15 17:30N 52°14' W 006°11'612.2
2017-Jul-15 17:00N 52°15' W 006°20'0 0.0
2017-Jul-15 16:31N 52°15' W 006°20'0 0.0
2017-Jul-15 16:00N 52°15' W 006°20'0 0.0
2017-Jul-15 15:30N 52°15' W 006°20'4 8.1
2017-Jul-15 15:00N 52°14' W 006°14'13 1.9
2017-Jul-15 08:04N 52°11' W 005°53'118.0
2017-Jul-15 08:00N 52°11' W 005°55'918.3
2017-Jul-15 07:30N 52°13' W 006°09'714.2
2017-Jul-15 07:00N 52°15' W 006°20'0 0.0
2017-Jul-15 06:30N 52°15' W 006°20'0 0.0
2017-Jul-15 06:00N 52°15' W 006°20'0 0.0
2017-Jul-15 05:30N 52°15' W 006°20'0 0.0
2017-Jul-15 05:00N 52°15' W 006°20'0 0.0
2017-Jul-15 04:30N 52°15' W 006°20'0 0.0
2017-Jul-15 04:00N 52°15' W 006°20'0 0.0
2017-Jul-15 03:30N 52°15' W 006°20'0 0.0
2017-Jul-15 03:00N 52°15' W 006°20'611.4
2017-Jul-15 02:30N 52°14' W 006°11'612.5
2017-Jul-15 02:00N 52°12' W 006°02'2 0.3
2017-Jul-14 18:03N 52°12' W 005°58'117.7
2017-Jul-14 18:01N 52°12' W 005°59'917.8
2017-Jul-14 17:30N 52°14' W 006°13'5 9.3
2017-Jul-14 17:00N 52°15' W 006°20'0 0.0
2017-Jul-14 16:30N 52°15' W 006°20'0 0.0
2017-Jul-14 16:00N 52°15' W 006°20'0 0.3
2017-Jul-14 15:30N 52°15' W 006°20'612.5
2017-Jul-14 15:00N 52°14' W 006°11'917.6
2017-Jul-14 14:30N 52°12' W 005°57'2 0.3
2017-Jul-14 07:50N 52°11' W 005°54'617.3
2017-Jul-14 07:30N 52°12' W 006°03'918.5
2017-Jul-14 07:00N 52°15' W 006°18'2 3.3
2017-Jul-14 06:30N 52°15' W 006°20'0 0.0
2017-Jul-14 06:00N 52°15' W 006°20'0 0.0
2017-Jul-14 05:30N 52°15' W 006°20'0 0.0
2017-Jul-14 05:00N 52°15' W 006°20'0 0.0
2017-Jul-14 04:30N 52°15' W 006°20'0 0.0
2017-Jul-14 04:00N 52°15' W 006°20'0 0.0
2017-Jul-14 03:30N 52°15' W 006°20'0 0.0
2017-Jul-14 03:00N 52°15' W 006°20'611.4
2017-Jul-14 02:30N 52°14' W 006°11'613.0
2017-Jul-14 02:00N 52°12' W 006°01'3 0.3
2017-Jul-13 18:04N 52°11' W 005°57'118.1
2017-Jul-13 18:00N 52°12' W 005°59'918.1
2017-Jul-13 17:31N 52°14' W 006°13'5 9.3
2017-Jul-13 17:01N 52°15' W 006°20'0 0.0
2017-Jul-13 16:30N 52°15' W 006°20'0 0.0
2017-Jul-13 16:01N 52°15' W 006°20'0 0.3
2017-Jul-13 15:30N 52°15' W 006°20'713.7
2017-Jul-13 15:00N 52°13' W 006°10'918.2
2017-Jul-13 14:30N 52°11' W 005°55'5 0.8
2017-Jul-13 07:39N 52°13' W 006°04'318.6
2017-Jul-13 07:30N 52°13' W 006°08'815.8
2017-Jul-13 07:01N 52°15' W 006°20'0 0.4
2017-Jul-13 06:30N 52°15' W 006°20'0 0.0
2017-Jul-13 06:00N 52°15' W 006°20'0 0.0
2017-Jul-13 05:30N 52°15' W 006°20'0 0.0
2017-Jul-13 05:00N 52°15' W 006°20'0 0.0
2017-Jul-13 04:30N 52°15' W 006°20'0 0.0
2017-Jul-13 04:00N 52°15' W 006°20'0 0.0
2017-Jul-13 03:30N 52°15' W 006°20'0 0.1
2017-Jul-13 03:00N 52°15' W 006°20'611.2
2017-Jul-13 02:30N 52°14' W 006°12'714.0
2017-Jul-13 02:00N 52°12' W 006°00'913.6
2017-Jul-13 01:20N 52°11' W 005°45'6 8.5
2017-Jul-13 00:36N 52°08' W 005°36'113.0
2017-Jul-13 00:30N 52°08' W 005°34'812.9
2017-Jul-12 23:55N 52°06' W 005°22'612.9
2017-Jul-12 23:26N 52°05' W 005°12'612.8
2017-Jul-12 22:57N 52°03' W 005°03'26 5.8
2017-Jul-12 18:25N 52°10' W 005°44'717.7
2017-Jul-12 18:00N 52°11' W 005°55'917.7
2017-Jul-12 17:31N 52°13' W 006°09'714.0
2017-Jul-12 17:00N 52°15' W 006°20'0 0.0
2017-Jul-12 16:31N 52°15' W 006°20'0 0.0
2017-Jul-12 16:00N 52°15' W 006°20'0 0.0
2017-Jul-12 15:30N 52°15' W 006°20'4 7.1
2017-Jul-12 15:00N 52°14' W 006°15'1918.5
2017-Jul-12 14:00N 52°10' W 005°45'917.6
2017-Jul-12 13:30N 52°07' W 005°31'18 3.3
2017-Jul-12 07:53N 52°13' W 005°60'718.7
2017-Jul-12 07:31N 52°14' W 006°11'  
Track history (hours):
 
Tides and Currents Weather Stations Pressure Air Temp Water Temp Dewpoint Dewpoint Depression Visibility Wind Speed Wind Dir Waves Ship Positions

Stena Europe

Operator: Stena Line

Last reported at 2017-Jul-22 07:27 UTC. Time now 2017-Jul-22 12:37 UTC.
Position N 52°14' W 006°13'.

Length 149 m; draft 6.1 m.

Type: Passenger vessel. MMSI: 235004539.

Date/timePositionNaut miles runAvg speedWind from/ knotsBaromVisibWave heightAir tempDewpointWater temp
2017-Jul-22 07:27N 52°14' W 006°13'4 9.9
2017-Jul-22 07:00N 52°15' W 006°20'0 0.0
2017-Jul-22 06:30N 52°15' W 006°20'0 0.0
2017-Jul-22 06:00N 52°15' W 006°20'0 0.0
2017-Jul-22 05:30N 52°15' W 006°20'0 0.0
2017-Jul-22 05:00N 52°15' W 006°20'0 0.0
2017-Jul-22 04:30N 52°15' W 006°20'0 0.0
2017-Jul-22 04:00N 52°15' W 006°20'0 0.0
2017-Jul-22 03:30N 52°15' W 006°20'0 0.2
2017-Jul-22 03:00N 52°15' W 006°20'511.0
2017-Jul-22 02:30N 52°14' W 006°12'713.8
2017-Jul-22 02:00N 52°16' W 006°01'6 0.7
2017-Jul-21 17:30N 52°13' W 006°09'713.8
2017-Jul-21 17:00N 52°15' W 006°20'0 0.0
2017-Jul-21 16:31N 52°15' W 006°20'0 0.0
2017-Jul-21 16:00N 52°15' W 006°20'0 0.0
2017-Jul-21 15:31N 52°15' W 006°20'5 9.7
2017-Jul-21 15:00N 52°14' W 006°13'917.7
2017-Jul-21 14:31N 52°12' W 005°59'2 0.4
2017-Jul-21 07:36N 52°12' W 006°03'217.8
2017-Jul-21 07:30N 52°13' W 006°05'917.8
2017-Jul-21 07:01N 52°16' W 006°19'1 1.7
2017-Jul-21 06:29N 52°15' W 006°20'0 0.0
2017-Jul-21 05:59N 52°15' W 006°20'0 0.0
2017-Jul-21 05:29N 52°15' W 006°20'0 0.0
2017-Jul-21 04:59N 52°15' W 006°20'0 0.0
2017-Jul-21 04:29N 52°15' W 006°20'0 0.0
2017-Jul-21 03:59N 52°15' W 006°20'0 0.0
2017-Jul-21 03:30N 52°15' W 006°20'0 0.6
2017-Jul-21 03:00N 52°16' W 006°20'510.3
2017-Jul-21 02:30N 52°14' W 006°12'713.6
2017-Jul-21 02:01N 52°13' W 006°02'713.4
2017-Jul-21 01:30N 52°12' W 005°51'12 1.8
2017-Jul-20 18:47N 52°14' W 006°11'517.6
2017-Jul-20 18:30N 52°15' W 006°18'1 2.2
2017-Jul-20 18:00N 52°15' W 006°20'0 0.0
2017-Jul-20 17:30N 52°15' W 006°20'0 0.0
2017-Jul-20 17:00N 52°15' W 006°20'4 8.8
2017-Jul-20 16:30N 52°15' W 006°13'815.7
2017-Jul-20 16:00N 52°15' W 006°00'7 0.8
2017-Jul-20 07:24N 52°14' W 006°12'513.3
2017-Jul-20 07:00N 52°15' W 006°20'0 0.0
2017-Jul-20 06:30N 52°15' W 006°20'0 0.0
2017-Jul-20 06:00N 52°15' W 006°20'0 0.0
2017-Jul-20 05:30N 52°15' W 006°20'0 0.0
2017-Jul-20 05:00N 52°15' W 006°20'0 0.0
2017-Jul-20 04:30N 52°15' W 006°20'0 0.0
2017-Jul-20 04:00N 52°15' W 006°20'0 0.0
2017-Jul-20 03:30N 52°15' W 006°20'0 0.0
2017-Jul-20 03:00N 52°15' W 006°20'5 9.8
2017-Jul-20 02:30N 52°14' W 006°12'612.7
2017-Jul-20 02:00N 52°12' W 006°03'612.9
2017-Jul-20 01:30N 52°10' W 005°53'7 0.9
2017-Jul-19 17:44N 52°12' W 006°03'418.8
2017-Jul-19 17:30N 52°14' W 006°10'612.8
2017-Jul-19 17:00N 52°15' W 006°20'0 0.0
2017-Jul-19 16:30N 52°15' W 006°20'19 2.3
2017-Jul-19 08:04N 52°10' W 005°50'118.4
2017-Jul-19 08:00N 52°11' W 005°52'918.1
2017-Jul-19 07:30N 52°13' W 006°07'917.8
2017-Jul-19 07:00N 52°16' W 006°20'0 0.6
2017-Jul-19 06:30N 52°15' W 006°20'0 0.0
2017-Jul-19 06:00N 52°15' W 006°20'0 0.0
2017-Jul-19 05:30N 52°15' W 006°20'0 0.0
2017-Jul-19 05:00N 52°15' W 006°20'0 0.0
2017-Jul-19 04:30N 52°15' W 006°20'0 0.0
2017-Jul-19 04:00N 52°15' W 006°20'0 0.0
2017-Jul-19 03:29N 52°15' W 006°20'0 0.0
2017-Jul-19 03:00N 52°15' W 006°20'611.7
2017-Jul-19 02:30N 52°14' W 006°11'612.7
2017-Jul-19 02:00N 52°12' W 006°01'612.2
2017-Jul-19 01:30N 52°11' W 005°51'612.5
2017-Jul-19 01:00N 52°09' W 005°41'13 1.8
2017-Jul-18 17:55N 52°12' W 006°01'718.2
2017-Jul-18 17:30N 52°14' W 006°13'5 9.0
2017-Jul-18 17:01N 52°15' W 006°20'0 0.0
2017-Jul-18 16:30N 52°15' W 006°20'0 0.0
2017-Jul-18 16:01N 52°15' W 006°20'0 0.3
2017-Jul-18 15:31N 52°15' W 006°20'714.1
2017-Jul-18 15:00N 52°13' W 006°09'26 4.3
2017-Jul-18 08:56N 52°07' W 005°28'1017.8
2017-Jul-18 08:23N 52°10' W 005°44'717.4
2017-Jul-18 08:00N 52°11' W 005°54'917.7
2017-Jul-18 07:30N 52°13' W 006°08'815.3
2017-Jul-18 07:00N 52°15' W 006°20'0 0.0
2017-Jul-18 06:30N 52°15' W 006°20'0 0.0
2017-Jul-18 06:00N 52°15' W 006°20'0 0.0
2017-Jul-18 05:30N 52°15' W 006°20'0 0.0
2017-Jul-18 05:00N 52°15' W 006°20'0 0.0
2017-Jul-18 04:30N 52°15' W 006°20'0 0.0
2017-Jul-18 04:00N 52°15' W 006°20'0 0.0
2017-Jul-18 03:30N 52°15' W 006°20'0 0.0
2017-Jul-18 03:00N 52°15' W 006°20'510.6
2017-Jul-18 02:30N 52°14' W 006°12'714.2
2017-Jul-18 02:00N 52°12' W 006°01'611.4
2017-Jul-18 01:31N 52°11' W 005°52'1211.6
2017-Jul-18 00:30N 52°08' W 005°33'713.8
2017-Jul-18 00:00N 52°06' W 005°22'7 1.3
2017-Jul-17 18:47N 52°08' W 005°33'718.7
2017-Jul-17 18:24N 52°10' W 005°45'718.5
2017-Jul-17 18:01N 52°11' W 005°56'918.5
2017-Jul-17 17:31N 52°13' W 006°11'612.2
2017-Jul-17 17:00N 52°15' W 006°20'0 0.0
2017-Jul-17 16:30N 52°15' W 006°20'0 0.0
2017-Jul-17 16:00N 52°15' W 006°20'0 0.0
2017-Jul-17 15:30N 52°15' W 006°20'510.8
2017-Jul-17 15:00N 52°14' W 006°12'918.9
2017-Jul-17 14:30N 52°12' W 005°57'918.7
2017-Jul-17 14:00N 52°09' W 005°42'918.2
2017-Jul-17 13:30N 52°07' W 005°28'917.8
2017-Jul-17 13:01N 52°05' W 005°14'917.2
2017-Jul-17 12:30N 52°02' W 005°00'2 0.7
2017-Jul-17 09:58N 52°01' W 004°58'1317.3
2017-Jul-17 09:13N 52°05' W 005°18'617.9
2017-Jul-17 08:54N 52°07' W 005°26'717.7
2017-Jul-17 08:30N 52°08' W 005°38'917.5
2017-Jul-17 08:00N 52°11' W 005°52'917.5
2017-Jul-17 07:30N 52°12' W 006°05'918.4
2017-Jul-17 07:00N 52°16' W 006°19'1 1.1
2017-Jul-17 06:30N 52°15' W 006°20'0 0.0
2017-Jul-17 06:00N 52°15' W 006°20'0 0.0
2017-Jul-17 05:30N 52°15' W 006°20'0 0.0
2017-Jul-17 05:00N 52°15' W 006°20'0 0.0
2017-Jul-17 04:30N 52°15' W 006°20'0 0.0
2017-Jul-17 04:00N 52°15' W 006°20'0 0.0
2017-Jul-17 03:30N 52°15' W 006°20'0 0.0
2017-Jul-17 03:00N 52°15' W 006°20'510.4
2017-Jul-17 02:30N 52°14' W 006°12'713.7
2017-Jul-17 02:01N 52°12' W 006°01'713.9
2017-Jul-17 01:31N 52°10' W 005°50'11 1.6
2017-Jul-16 18:43N 52°08' W 005°33'418.4
2017-Jul-16 18:30N 52°09' W 005°40'918.4
2017-Jul-16 18:00N 52°11' W 005°54'918.3
2017-Jul-16 17:31N 52°13' W 006°09'714.6
2017-Jul-16 17:00N 52°15' W 006°20'0 0.0
2017-Jul-16 16:30N 52°15' W 006°20'0 0.0
2017-Jul-16 16:00N 52°15' W 006°20'0 0.0
2017-Jul-16 15:30N 52°15' W 006°20'3 6.4
2017-Jul-16 15:00N 52°14' W 006°15'918.4
2017-Jul-16 14:30N 52°12' W 006°01'1118.6
2017-Jul-16 13:55N 52°09' W 005°44'1018.2
2017-Jul-16 13:24N 52°07' W 005°28'817.5
2017-Jul-16 12:56N 52°05' W 005°16'19 4.1
2017-Jul-16 08:09N 52°10' W 005°46'318.0
2017-Jul-16 08:00N 52°11' W 005°50'918.1
2017-Jul-16 07:30N 52°12' W 006°05'918.5
2017-Jul-16 07:00N 52°16' W 006°19'1 1.7
2017-Jul-16 06:30N 52°15' W 006°20'0 0.0
2017-Jul-16 06:00N 52°15' W 006°20'0 0.0
2017-Jul-16 05:30N 52°15' W 006°20'0 0.0
2017-Jul-16 05:00N 52°15' W 006°20'0 0.0
2017-Jul-16 04:30N 52°15' W 006°20'0 0.0
2017-Jul-16 04:00N 52°15' W 006°20'0 0.0
2017-Jul-16 03:30N 52°15' W 006°20'0 0.0
2017-Jul-16 03:00N 52°15' W 006°20'4 8.1
2017-Jul-16 02:30N 52°14' W 006°14'816.1
2017-Jul-16 02:00N 52°12' W 006°01'815.7
2017-Jul-16 01:29N 52°10' W 005°48'3 0.4
2017-Jul-15 18:27N 52°09' W 005°44'818.1
2017-Jul-15 18:00N 52°11' W 005°57'918.1
2017-Jul-15 17:30N 52°14' W 006°11'612.2
2017-Jul-15 17:00N 52°15' W 006°20'0 0.0
2017-Jul-15 16:31N 52°15' W 006°20'0 0.0
2017-Jul-15 16:00N 52°15' W 006°20'0 0.0
2017-Jul-15 15:30N 52°15' W 006°20'4 8.1
2017-Jul-15 15:00N 52°14' W 006°14'13 1.9
2017-Jul-15 08:04N 52°11' W 005°53'118.0
2017-Jul-15 08:00N 52°11' W 005°55'918.3
2017-Jul-15 07:30N 52°13' W 006°09'714.2
2017-Jul-15 07:00N 52°15' W 006°20'0 0.0
2017-Jul-15 06:30N 52°15' W 006°20'0 0.0
2017-Jul-15 06:00N 52°15' W 006°20'0 0.0
2017-Jul-15 05:30N 52°15' W 006°20'0 0.0
2017-Jul-15 05:00N 52°15' W 006°20'0 0.0
2017-Jul-15 04:30N 52°15' W 006°20'0 0.0
2017-Jul-15 04:00N 52°15' W 006°20'0 0.0
2017-Jul-15 03:30N 52°15' W 006°20'0 0.0
2017-Jul-15 03:00N 52°15' W 006°20'611.4
2017-Jul-15 02:30N 52°14' W 006°11'612.5
2017-Jul-15 02:00N 52°12' W 006°02'2 0.3
2017-Jul-14 18:03N 52°12' W 005°58'117.7
2017-Jul-14 18:01N 52°12' W 005°59'917.8
2017-Jul-14 17:30N 52°14' W 006°13'5 9.3
2017-Jul-14 17:00N 52°15' W 006°20'0 0.0
2017-Jul-14 16:30N 52°15' W 006°20'0 0.0
2017-Jul-14 16:00N 52°15' W 006°20'0 0.3
2017-Jul-14 15:30N 52°15' W 006°20'612.5
2017-Jul-14 15:00N 52°14' W 006°11'917.6
2017-Jul-14 14:30N 52°12' W 005°57'2 0.3
2017-Jul-14 07:50N 52°11' W 005°54'617.3
2017-Jul-14 07:30N 52°12' W 006°03'918.5
2017-Jul-14 07:00N 52°15' W 006°18'2 3.3
2017-Jul-14 06:30N 52°15' W 006°20'0 0.0
2017-Jul-14 06:00N 52°15' W 006°20'0 0.0
2017-Jul-14 05:30N 52°15' W 006°20'0 0.0
2017-Jul-14 05:00N 52°15' W 006°20'0 0.0
2017-Jul-14 04:30N 52°15' W 006°20'0 0.0
2017-Jul-14 04:00N 52°15' W 006°20'0 0.0
2017-Jul-14 03:30N 52°15' W 006°20'0 0.0
2017-Jul-14 03:00N 52°15' W 006°20'611.4
2017-Jul-14 02:30N 52°14' W 006°11'613.0
2017-Jul-14 02:00N 52°12' W 006°01'3 0.3
2017-Jul-13 18:04N 52°11' W 005°57'118.1
2017-Jul-13 18:00N 52°12' W 005°59'918.1
2017-Jul-13 17:31N 52°14' W 006°13'5 9.3
2017-Jul-13 17:01N 52°15' W 006°20'0 0.0
2017-Jul-13 16:30N 52°15' W 006°20'0 0.0
2017-Jul-13 16:01N 52°15' W 006°20'0 0.3
2017-Jul-13 15:30N 52°15' W 006°20'713.7
2017-Jul-13 15:00N 52°13' W 006°10'918.2
2017-Jul-13 14:30N 52°11' W 005°55'5 0.8
2017-Jul-13 07:39N 52°13' W 006°04'318.6
2017-Jul-13 07:30N 52°13' W 006°08'815.8
2017-Jul-13 07:01N 52°15' W 006°20'0 0.4
2017-Jul-13 06:30N 52°15' W 006°20'0 0.0
2017-Jul-13 06:00N 52°15' W 006°20'0 0.0
2017-Jul-13 05:30N 52°15' W 006°20'0 0.0
2017-Jul-13 05:00N 52°15' W 006°20'0 0.0
2017-Jul-13 04:30N 52°15' W 006°20'0 0.0
2017-Jul-13 04:00N 52°15' W 006°20'0 0.0
2017-Jul-13 03:30N 52°15' W 006°20'0 0.1
2017-Jul-13 03:00N 52°15' W 006°20'611.2
2017-Jul-13 02:30N 52°14' W 006°12'714.0
2017-Jul-13 02:00N 52°12' W 006°00'913.6
2017-Jul-13 01:20N 52°11' W 005°45'6 8.5
2017-Jul-13 00:36N 52°08' W 005°36'113.0
2017-Jul-13 00:30N 52°08' W 005°34'812.9
2017-Jul-12 23:55N 52°06' W 005°22'612.9
2017-Jul-12 23:26N 52°05' W 005°12'612.8
2017-Jul-12 22:57N 52°03' W 005°03'26 5.8
2017-Jul-12 18:25N 52°10' W 005°44'717.7
2017-Jul-12 18:00N 52°11' W 005°55'917.7
2017-Jul-12 17:31N 52°13' W 006°09'714.0
2017-Jul-12 17:00N 52°15' W 006°20'0 0.0
2017-Jul-12 16:31N 52°15' W 006°20'0 0.0
2017-Jul-12 16:00N 52°15' W 006°20'0 0.0
2017-Jul-12 15:30N 52°15' W 006°20'4 7.1
2017-Jul-12 15:00N 52°14' W 006°15'1918.5
2017-Jul-12 14:00N 52°10' W 005°45'917.6
2017-Jul-12 13:30N 52°07' W 005°31'18 3.3
2017-Jul-12 07:53N 52°13' W 005°60'718.7
2017-Jul-12 07:31N 52°14' W 006°11'  

Dump ship's entire track history